createdAt,value
2018-03-26T00:00:19.007Z,982.73
2018-03-26T00:01:25.804Z,982.73
2018-03-26T00:02:32.560Z,982.66
2018-03-26T00:03:39.406Z,982.69
2018-03-26T00:04:46.201Z,982.68
2018-03-26T00:05:52.978Z,982.68
2018-03-26T00:06:59.828Z,982.74
2018-03-26T00:08:06.587Z,982.75
2018-03-26T00:09:13.359Z,982.75
2018-03-26T00:10:20.125Z,982.83
2018-03-26T00:11:26.892Z,982.74
2018-03-26T00:12:33.657Z,982.71
2018-03-26T00:13:40.435Z,982.83
2018-03-26T00:14:47.275Z,982.72
2018-03-26T00:15:54.052Z,982.71
2018-03-26T00:17:00.826Z,982.67
2018-03-26T00:18:07.696Z,982.73
2018-03-26T00:19:14.459Z,982.71
2018-03-26T00:20:21.233Z,982.69
2018-03-26T00:21:28.221Z,982.73
2018-03-26T00:22:34.962Z,982.75
2018-03-26T00:23:41.712Z,982.73
2018-03-26T00:24:48.549Z,982.69
2018-03-26T00:25:55.336Z,982.75
2018-03-26T00:27:02.119Z,982.70
2018-03-26T00:28:09.004Z,982.78
2018-03-26T00:29:15.748Z,982.75
2018-03-26T00:30:22.512Z,982.75
2018-03-26T00:31:29.488Z,982.77
2018-03-26T00:32:36.311Z,982.79
2018-03-26T00:33:43.087Z,982.82
2018-03-26T00:34:50.021Z,982.83
2018-03-26T00:35:56.737Z,982.88
2018-03-26T00:37:03.528Z,982.83
2018-03-26T00:38:10.309Z,982.84
2018-03-26T00:39:17.100Z,982.81
2018-03-26T00:40:23.846Z,982.90
2018-03-26T00:41:30.713Z,982.85
2018-03-26T00:42:37.501Z,982.86
2018-03-26T00:43:44.298Z,982.83
2018-03-26T00:44:51.177Z,982.85
2018-03-26T00:45:57.909Z,982.92
2018-03-26T00:47:04.676Z,982.88
2018-03-26T00:48:11.425Z,982.84
2018-03-26T00:49:18.199Z,982.83
2018-03-26T00:50:24.917Z,982.91
2018-03-26T00:51:31.670Z,982.89
2018-03-26T00:52:38.489Z,982.85
2018-03-26T00:53:45.273Z,982.86
2018-03-26T00:54:52.009Z,982.87
2018-03-26T00:55:58.781Z,982.85
2018-03-26T00:57:05.518Z,982.90
2018-03-26T00:58:12.376Z,982.85
2018-03-26T00:59:19.149Z,982.85
2018-03-26T01:00:25.915Z,982.93
2018-03-26T01:01:32.766Z,982.92
2018-03-26T01:02:39.528Z,982.91
2018-03-26T01:03:46.277Z,982.95
2018-03-26T01:04:53.192Z,982.95
2018-03-26T01:05:59.955Z,982.89
2018-03-26T01:07:06.699Z,982.98
2018-03-26T01:08:13.427Z,982.98
2018-03-26T01:09:20.264Z,982.97
2018-03-26T01:10:27.001Z,982.99
2018-03-26T01:11:33.795Z,983.02
2018-03-26T01:12:40.520Z,983.01
2018-03-26T01:13:47.322Z,982.98
2018-03-26T01:14:54.064Z,983.03
2018-03-26T01:16:00.808Z,982.99
2018-03-26T01:17:07.688Z,983.09
2018-03-26T01:18:14.443Z,983.02
2018-03-26T01:19:21.191Z,983.12
2018-03-26T01:20:27.924Z,983.12
2018-03-26T01:21:34.750Z,983.11
2018-03-26T01:22:41.495Z,983.04
2018-03-26T01:23:48.244Z,983.07
2018-03-26T01:24:54.983Z,983.02
2018-03-26T01:26:01.779Z,983.10
2018-03-26T01:27:08.582Z,983.07
2018-03-26T01:28:15.329Z,983.13
2018-03-26T01:29:22.076Z,983.14
2018-03-26T01:30:28.842Z,983.14
2018-03-26T01:31:35.620Z,983.17
2018-03-26T01:32:42.356Z,983.16
2018-03-26T01:33:49.094Z,983.11
2018-03-26T01:34:55.916Z,983.19
2018-03-26T01:36:02.671Z,983.14
2018-03-26T01:37:09.407Z,983.24
2018-03-26T01:38:16.147Z,983.20
2018-03-26T01:39:22.979Z,983.21
2018-03-26T01:40:29.728Z,983.22
2018-03-26T01:41:36.478Z,983.20
2018-03-26T01:42:43.225Z,983.21
2018-03-26T01:43:50.016Z,983.25
2018-03-26T01:44:56.800Z,983.29
2018-03-26T01:46:03.552Z,983.26
2018-03-26T01:47:10.317Z,983.36
2018-03-26T01:48:17.081Z,983.35
2018-03-26T01:49:23.817Z,983.37
2018-03-26T01:50:30.593Z,983.34
2018-03-26T01:51:37.376Z,983.34
2018-03-26T01:52:44.181Z,983.42
2018-03-26T01:53:50.951Z,983.35
2018-03-26T01:54:57.684Z,983.42
2018-03-26T01:56:04.551Z,983.36
2018-03-26T01:57:11.316Z,983.42
2018-03-26T01:58:18.067Z,983.43
2018-03-26T01:59:24.815Z,983.43
2018-03-26T02:00:31.579Z,983.44
2018-03-26T02:01:38.317Z,983.44
2018-03-26T02:02:45.088Z,983.48
2018-03-26T02:03:51.832Z,983.45
2018-03-26T02:04:58.636Z,983.49
2018-03-26T02:06:05.379Z,983.41
2018-03-26T02:07:12.111Z,983.42
2018-03-26T02:08:18.872Z,983.40
2018-03-26T02:09:25.701Z,983.40
2018-03-26T02:10:32.588Z,983.39
2018-03-26T02:11:39.326Z,983.46
2018-03-26T02:12:46.090Z,983.42
2018-03-26T02:13:52.819Z,983.42
2018-03-26T02:14:59.582Z,983.40
2018-03-26T02:16:06.756Z,983.42
2018-03-26T02:17:13.523Z,983.46
2018-03-26T02:18:20.293Z,983.39
2018-03-26T02:19:27.033Z,983.48
2018-03-26T02:20:33.779Z,983.44
2018-03-26T02:21:40.569Z,983.52
2018-03-26T02:22:47.372Z,983.43
2018-03-26T02:23:54.131Z,983.39
2018-03-26T02:25:00.895Z,983.43
2018-03-26T02:26:07.762Z,983.48
2018-03-26T02:27:14.555Z,983.48
2018-03-26T02:28:21.307Z,983.46
2018-03-26T02:29:28.056Z,983.49
2018-03-26T02:30:34.805Z,983.51
2018-03-26T02:31:41.566Z,983.48
2018-03-26T02:32:48.425Z,983.51
2018-03-26T02:33:55.221Z,983.50
2018-03-26T02:35:01.977Z,983.45
2018-03-26T02:36:08.757Z,983.44
2018-03-26T02:37:15.589Z,983.48
2018-03-26T02:38:22.321Z,983.47
2018-03-26T02:39:29.049Z,983.47
2018-03-26T02:40:35.891Z,983.52
2018-03-26T02:41:42.748Z,983.48
2018-03-26T02:42:49.505Z,983.49
2018-03-26T02:43:56.261Z,983.51
2018-03-26T02:45:03.081Z,983.51
2018-03-26T02:46:09.841Z,983.48
2018-03-26T02:47:16.603Z,983.55
2018-03-26T02:48:23.335Z,983.54
2018-03-26T02:49:30.124Z,983.54
2018-03-26T02:50:36.882Z,983.56
2018-03-26T02:51:43.661Z,983.56
2018-03-26T02:52:50.455Z,983.52
2018-03-26T02:53:57.221Z,983.62
2018-03-26T02:55:03.965Z,983.55
2018-03-26T02:56:10.735Z,983.58
2018-03-26T02:57:17.460Z,983.59
2018-03-26T02:58:24.274Z,983.63
2018-03-26T02:59:31.038Z,983.53
2018-03-26T03:00:37.771Z,983.62
2018-03-26T03:01:44.517Z,983.56
2018-03-26T03:02:51.295Z,983.57
2018-03-26T03:03:58.056Z,983.51
2018-03-26T03:05:04.853Z,983.59
2018-03-26T03:06:11.719Z,983.53
2018-03-26T03:07:18.481Z,983.59
2018-03-26T03:08:25.267Z,983.62
2018-03-26T03:09:32.099Z,983.62
2018-03-26T03:10:38.903Z,983.56
2018-03-26T03:11:45.642Z,983.56
2018-03-26T03:12:52.470Z,983.64
2018-03-26T03:13:59.208Z,983.56
2018-03-26T03:15:05.979Z,983.59
2018-03-26T03:16:12.738Z,983.58
2018-03-26T03:17:19.523Z,983.58
2018-03-26T03:18:26.316Z,983.62
2018-03-26T03:19:33.165Z,983.61
2018-03-26T03:20:39.931Z,983.67
2018-03-26T03:21:46.679Z,983.66
2018-03-26T03:22:53.456Z,983.62
2018-03-26T03:24:00.296Z,983.71
2018-03-26T03:25:07.068Z,983.64
2018-03-26T03:26:13.795Z,983.62
2018-03-26T03:27:20.552Z,983.67
2018-03-26T03:28:27.380Z,983.69
2018-03-26T03:29:34.162Z,983.72
2018-03-26T03:30:40.931Z,983.71
2018-03-26T03:31:47.748Z,983.68
2018-03-26T03:32:54.488Z,983.74
2018-03-26T03:34:01.231Z,983.76
2018-03-26T03:35:08.012Z,983.76
2018-03-26T03:36:14.805Z,983.73
2018-03-26T03:37:21.555Z,983.74
2018-03-26T03:38:28.325Z,983.74
2018-03-26T03:39:35.071Z,983.71
2018-03-26T03:40:41.871Z,983.83
2018-03-26T03:41:48.596Z,983.84
2018-03-26T03:42:55.411Z,983.79
2018-03-26T03:44:02.256Z,983.78
2018-03-26T03:45:09.044Z,983.76
2018-03-26T03:46:15.804Z,983.76
2018-03-26T03:47:22.567Z,983.81
2018-03-26T03:48:29.292Z,983.81
2018-03-26T03:49:36.049Z,983.81
2018-03-26T03:50:42.887Z,983.85
2018-03-26T03:51:49.976Z,983.80
2018-03-26T03:52:57.033Z,983.84
2018-03-26T03:54:03.828Z,983.84
2018-03-26T03:55:10.647Z,983.91
2018-03-26T03:56:17.404Z,983.89
2018-03-26T03:57:24.148Z,983.90
2018-03-26T03:58:30.941Z,983.78
2018-03-26T03:59:37.710Z,983.86
2018-03-26T04:00:44.459Z,983.86
2018-03-26T04:01:51.292Z,983.86
2018-03-26T04:02:58.099Z,983.88
2018-03-26T04:04:04.844Z,983.85
2018-03-26T04:05:11.578Z,983.88
2018-03-26T04:06:18.338Z,983.83
2018-03-26T04:07:25.172Z,983.86
2018-03-26T04:08:31.903Z,983.89
2018-03-26T04:09:38.644Z,983.84
2018-03-26T04:10:45.376Z,983.87
2018-03-26T04:11:52.236Z,983.86
2018-03-26T04:12:59.060Z,983.83
2018-03-26T04:14:05.812Z,983.90
2018-03-26T04:15:12.707Z,983.87
2018-03-26T04:16:19.488Z,983.87
2018-03-26T04:17:26.328Z,983.84
2018-03-26T04:18:33.062Z,983.91
2018-03-26T04:19:39.805Z,983.87
2018-03-26T04:20:46.538Z,983.88
2018-03-26T04:21:53.278Z,983.88
2018-03-26T04:23:00.116Z,983.97
2018-03-26T04:24:06.864Z,983.84
2018-03-26T04:25:13.621Z,984.00
2018-03-26T04:26:20.343Z,983.99
2018-03-26T04:27:27.192Z,983.98
2018-03-26T04:28:33.923Z,983.99
2018-03-26T04:29:40.670Z,983.95
2018-03-26T04:30:47.428Z,983.99
2018-03-26T04:31:54.216Z,984.01
2018-03-26T04:33:00.955Z,984.04
2018-03-26T04:34:07.727Z,984.07
2018-03-26T04:35:14.447Z,984.05
2018-03-26T04:36:21.292Z,984.01
2018-03-26T04:37:28.048Z,984.09
2018-03-26T04:38:34.792Z,983.97
2018-03-26T04:39:41.547Z,984.06
2018-03-26T04:40:48.356Z,984.03
2018-03-26T04:41:55.091Z,984.04
2018-03-26T04:43:01.967Z,984.00
2018-03-26T04:44:08.782Z,984.05
2018-03-26T04:45:15.543Z,984.03
2018-03-26T04:46:22.312Z,984.04
2018-03-26T04:47:29.044Z,983.99
2018-03-26T04:48:35.868Z,984.06
2018-03-26T04:49:42.629Z,984.05
2018-03-26T04:50:49.359Z,984.07
2018-03-26T04:51:56.130Z,984.12
2018-03-26T04:53:02.924Z,984.12
2018-03-26T04:54:09.704Z,984.15
2018-03-26T04:55:16.541Z,984.12
2018-03-26T04:56:23.464Z,984.20
2018-03-26T04:57:30.192Z,984.11
2018-03-26T04:58:36.933Z,984.15
2018-03-26T04:59:43.802Z,984.23
2018-03-26T05:00:50.530Z,984.23
2018-03-26T05:01:57.272Z,984.27
2018-03-26T05:03:04.008Z,984.21
2018-03-26T05:04:10.872Z,984.19
2018-03-26T05:05:17.600Z,984.27
2018-03-26T05:06:24.457Z,984.27
2018-03-26T05:07:31.260Z,984.28
2018-03-26T05:08:38.095Z,984.25
2018-03-26T05:09:44.887Z,984.32
2018-03-26T05:10:51.639Z,984.23
2018-03-26T05:11:58.387Z,984.28
2018-03-26T05:13:05.116Z,984.33
2018-03-26T05:14:11.845Z,984.31
2018-03-26T05:15:18.687Z,984.31
2018-03-26T05:16:25.464Z,984.34
2018-03-26T05:17:32.215Z,984.33
2018-03-26T05:18:38.950Z,984.38
2018-03-26T05:19:45.690Z,984.41
2018-03-26T05:20:52.468Z,984.40
2018-03-26T05:21:59.203Z,984.39
2018-03-26T05:23:05.960Z,984.48
2018-03-26T05:24:12.698Z,984.43
2018-03-26T05:25:19.420Z,984.44
2018-03-26T05:26:26.196Z,984.51
2018-03-26T05:27:32.964Z,984.58
2018-03-26T05:28:39.762Z,984.60
2018-03-26T05:29:46.540Z,984.52
2018-03-26T05:30:53.330Z,984.53
2018-03-26T05:32:00.207Z,984.53
2018-03-26T05:33:06.988Z,984.59
2018-03-26T05:34:13.778Z,984.60
2018-03-26T05:35:20.620Z,984.62
2018-03-26T05:36:27.405Z,984.66
2018-03-26T05:37:34.151Z,984.68
2018-03-26T05:38:40.955Z,984.72
2018-03-26T05:39:47.697Z,984.70
2018-03-26T05:40:54.453Z,984.71
2018-03-26T05:42:01.256Z,984.66
2018-03-26T05:43:08.091Z,984.65
2018-03-26T05:44:14.852Z,984.72
2018-03-26T05:45:21.645Z,984.75
2018-03-26T05:46:28.576Z,984.73
2018-03-26T05:47:35.339Z,984.71
2018-03-26T05:48:42.242Z,984.74
2018-03-26T05:49:49.022Z,984.75
2018-03-26T05:50:55.783Z,984.81
2018-03-26T05:52:02.677Z,984.86
2018-03-26T05:53:09.647Z,984.83
2018-03-26T05:54:16.547Z,984.78
2018-03-26T05:55:23.332Z,984.92
2018-03-26T05:56:30.385Z,984.91
2018-03-26T05:57:37.312Z,984.88
2018-03-26T05:58:44.067Z,984.84
2018-03-26T05:59:51.091Z,984.83
2018-03-26T06:00:57.887Z,984.91
2018-03-26T06:02:04.667Z,984.96
2018-03-26T06:03:11.813Z,984.94
2018-03-26T06:04:18.652Z,984.90
2018-03-26T06:05:25.403Z,984.94
2018-03-26T06:06:32.182Z,984.96
2018-03-26T06:07:39.046Z,985.04
2018-03-26T06:08:45.788Z,985.05
2018-03-26T06:09:52.589Z,985.05
2018-03-26T06:10:59.343Z,985.03
2018-03-26T06:12:06.117Z,984.96
2018-03-26T06:13:12.919Z,984.97
2018-03-26T06:14:19.680Z,985.03
2018-03-26T06:15:26.541Z,985.04
2018-03-26T06:16:33.300Z,985.03
2018-03-26T06:17:40.159Z,985.08
2018-03-26T06:18:47.000Z,984.98
2018-03-26T06:19:53.827Z,985.04
2018-03-26T06:21:00.612Z,985.07
2018-03-26T06:22:07.444Z,985.07
2018-03-26T06:23:14.276Z,985.14
2018-03-26T06:24:21.184Z,985.04
2018-03-26T06:25:28.000Z,985.13
2018-03-26T06:26:34.945Z,985.17
2018-03-26T06:27:41.766Z,985.11
2018-03-26T06:28:48.588Z,985.19
2018-03-26T06:29:55.363Z,985.16
2018-03-26T06:31:02.180Z,985.23
2018-03-26T06:32:08.996Z,985.16
2018-03-26T06:33:15.788Z,985.17
2018-03-26T06:34:22.627Z,985.17
2018-03-26T06:35:29.417Z,985.18
2018-03-26T06:36:36.199Z,985.15
2018-03-26T06:37:43.008Z,985.19
2018-03-26T06:38:49.834Z,985.23
2018-03-26T06:39:56.660Z,985.21
2018-03-26T06:41:03.424Z,985.19
2018-03-26T06:42:10.227Z,985.24
2018-03-26T06:43:17.047Z,985.22
2018-03-26T06:44:23.878Z,985.29
2018-03-26T06:45:30.627Z,985.31
2018-03-26T06:46:37.598Z,985.32
2018-03-26T06:47:44.368Z,985.33
2018-03-26T06:48:51.245Z,985.32
2018-03-26T06:49:58.039Z,985.35
2018-03-26T06:51:04.840Z,985.36
2018-03-26T06:52:11.648Z,985.43
2018-03-26T06:53:18.407Z,985.47
2018-03-26T06:54:25.183Z,985.48
2018-03-26T06:55:32.048Z,985.44
2018-03-26T06:56:38.777Z,985.52
2018-03-26T06:57:45.529Z,985.48
2018-03-26T06:58:52.276Z,985.48
2018-03-26T06:59:59.168Z,985.48
2018-03-26T07:01:05.934Z,985.57
2018-03-26T07:02:12.676Z,985.49
2018-03-26T07:03:19.419Z,985.58
2018-03-26T07:04:26.238Z,985.55
2018-03-26T07:05:33.200Z,985.54
2018-03-26T07:06:40.016Z,985.53
2018-03-26T07:07:46.786Z,985.49
2018-03-26T07:08:53.530Z,985.56
2018-03-26T07:10:00.272Z,985.56
2018-03-26T07:11:07.137Z,985.47
2018-03-26T07:12:13.892Z,985.46
2018-03-26T07:13:20.653Z,985.52
2018-03-26T07:14:27.477Z,985.54
2018-03-26T07:15:34.618Z,985.54
2018-03-26T07:16:41.393Z,985.53
2018-03-26T07:17:48.168Z,985.52
2018-03-26T07:18:55.065Z,985.52
2018-03-26T07:20:01.829Z,985.58
2018-03-26T07:21:08.607Z,985.55
2018-03-26T07:22:15.455Z,985.63
2018-03-26T07:23:22.220Z,985.61
2018-03-26T07:24:28.988Z,985.55
2018-03-26T07:25:35.735Z,985.59
2018-03-26T07:26:42.520Z,985.60
2018-03-26T07:27:49.311Z,985.61
2018-03-26T07:28:56.082Z,985.74
2018-03-26T07:30:02.939Z,985.67
2018-03-26T07:31:09.715Z,985.66
2018-03-26T07:32:16.508Z,985.61
2018-03-26T07:33:23.345Z,985.71
2018-03-26T07:34:30.141Z,985.63
2018-03-26T07:35:36.901Z,985.69
2018-03-26T07:36:43.668Z,985.65
2018-03-26T07:37:50.812Z,985.60
2018-03-26T07:38:57.581Z,985.64
2018-03-26T07:40:04.341Z,985.68
2018-03-26T07:41:11.246Z,985.70
2018-03-26T07:42:18.053Z,985.65
2018-03-26T07:43:24.830Z,985.63
2018-03-26T07:44:31.613Z,985.71
2018-03-26T07:45:38.477Z,985.67
2018-03-26T07:46:45.247Z,985.71
2018-03-26T07:47:52.042Z,985.75
2018-03-26T07:48:58.907Z,985.67
2018-03-26T07:50:05.670Z,985.76
2018-03-26T07:51:12.488Z,985.71
2018-03-26T07:52:19.364Z,985.68
2018-03-26T07:53:26.202Z,985.73
2018-03-26T07:54:32.996Z,985.72
2018-03-26T07:55:39.852Z,985.69
2018-03-26T07:56:46.603Z,985.73
2018-03-26T07:57:53.413Z,985.72
2018-03-26T07:59:00.196Z,985.70
2018-03-26T08:00:06.988Z,985.75
2018-03-26T08:01:13.839Z,985.74
2018-03-26T08:02:20.633Z,985.80
2018-03-26T08:03:27.409Z,985.75
2018-03-26T08:04:34.497Z,985.69
2018-03-26T08:05:41.297Z,985.78
2018-03-26T08:06:48.156Z,985.74
2018-03-26T08:07:54.956Z,985.74
2018-03-26T08:09:01.860Z,985.84
2018-03-26T08:10:08.429Z,985.79
2018-03-26T08:11:15.296Z,985.82
2018-03-26T08:12:22.164Z,985.72
2018-03-26T08:13:28.949Z,985.78
2018-03-26T08:14:35.685Z,985.84
2018-03-26T08:15:42.448Z,985.85
2018-03-26T08:16:49.224Z,985.82
2018-03-26T08:17:56.123Z,985.86
2018-03-26T08:19:02.923Z,985.89
2018-03-26T08:20:09.683Z,985.80
2018-03-26T08:21:16.556Z,985.87
2018-03-26T08:22:23.388Z,985.86
2018-03-26T08:23:30.161Z,985.88
2018-03-26T08:24:36.984Z,985.88
2018-03-26T08:25:43.748Z,985.90
2018-03-26T08:26:50.499Z,985.98
2018-03-26T08:27:57.280Z,985.91
2018-03-26T08:29:04.206Z,985.98
2018-03-26T08:30:10.960Z,985.97
2018-03-26T08:31:17.750Z,986.09
2018-03-26T08:32:24.773Z,986.02
2018-03-26T08:33:31.642Z,986.03
2018-03-26T08:34:38.435Z,985.99
2018-03-26T08:35:45.280Z,986.05
2018-03-26T08:36:52.060Z,986.07
2018-03-26T08:37:58.824Z,986.09
2018-03-26T08:39:05.649Z,986.12
2018-03-26T08:40:13.021Z,986.06
2018-03-26T08:41:19.787Z,986.07
2018-03-26T08:42:26.574Z,986.13
2018-03-26T08:43:33.415Z,986.13
2018-03-26T08:44:40.205Z,986.15
2018-03-26T08:45:46.951Z,986.09
2018-03-26T08:46:53.696Z,986.16
2018-03-26T08:48:00.521Z,986.15
2018-03-26T08:49:07.288Z,986.16
2018-03-26T08:50:14.139Z,986.15
2018-03-26T08:51:20.945Z,986.20
2018-03-26T08:52:27.732Z,986.19
2018-03-26T08:53:34.516Z,986.26
2018-03-26T08:54:41.444Z,986.28
2018-03-26T08:55:48.200Z,986.34
2018-03-26T08:56:55.007Z,986.24
2018-03-26T08:58:01.785Z,986.29
2018-03-26T08:59:08.585Z,986.30
2018-03-26T09:00:15.372Z,986.37
2018-03-26T09:01:22.223Z,986.40
2018-03-26T09:02:28.991Z,986.39
2018-03-26T09:03:35.756Z,986.26
2018-03-26T09:04:42.943Z,986.34
2018-03-26T09:05:49.574Z,986.37
2018-03-26T09:06:56.429Z,986.44
2018-03-26T09:08:03.193Z,986.45
2018-03-26T09:09:09.945Z,986.40
2018-03-26T09:10:16.875Z,986.47
2018-03-26T09:11:23.653Z,986.50
2018-03-26T09:12:30.499Z,986.45
2018-03-26T09:13:37.270Z,986.50
2018-03-26T09:14:44.082Z,986.46
2018-03-26T09:15:50.869Z,986.49
2018-03-26T09:16:57.701Z,986.51
2018-03-26T09:18:04.453Z,986.49
2018-03-26T09:19:11.201Z,986.50
2018-03-26T09:20:17.951Z,986.52
2018-03-26T09:21:24.879Z,986.41
2018-03-26T09:22:31.616Z,986.48
2018-03-26T09:23:38.364Z,986.53
2018-03-26T09:24:45.179Z,986.59
2018-03-26T09:25:51.939Z,986.60
2018-03-26T09:26:58.761Z,986.52
2018-03-26T09:28:05.604Z,986.58
2018-03-26T09:29:12.336Z,986.58
2018-03-26T09:30:19.080Z,986.61
2018-03-26T09:31:25.780Z,986.61
2018-03-26T09:32:32.539Z,986.63
2018-03-26T09:33:39.340Z,986.61
2018-03-26T09:34:46.086Z,986.62
2018-03-26T09:35:52.837Z,986.49
2018-03-26T09:36:59.573Z,986.56
2018-03-26T09:38:06.428Z,986.59
2018-03-26T09:39:13.185Z,986.59
2018-03-26T09:40:19.900Z,986.64
2018-03-26T09:41:26.631Z,986.64
2018-03-26T09:42:33.406Z,986.61
2018-03-26T09:43:40.149Z,986.64
2018-03-26T09:44:46.868Z,986.63
2018-03-26T09:45:53.588Z,986.60
2018-03-26T09:47:00.365Z,986.70
2018-03-26T09:48:07.203Z,986.72
2018-03-26T09:49:13.920Z,986.65
2018-03-26T09:50:20.661Z,986.58
2018-03-26T09:51:27.605Z,986.70
2018-03-26T09:52:34.349Z,986.68
2018-03-26T09:53:41.115Z,986.73
2018-03-26T09:54:47.868Z,986.67
2018-03-26T09:55:54.673Z,986.72
2018-03-26T09:57:01.415Z,986.67
2018-03-26T09:58:08.560Z,986.63
2018-03-26T09:59:15.280Z,986.69
2018-03-26T10:00:22.015Z,986.69
2018-03-26T10:01:28.868Z,986.70
2018-03-26T10:02:35.775Z,986.77
2018-03-26T10:03:42.531Z,986.69
2018-03-26T10:04:49.280Z,986.73
2018-03-26T10:05:56.001Z,986.68
2018-03-26T10:07:07.859Z,986.80
2018-03-26T10:08:09.569Z,986.75
2018-03-26T10:09:16.360Z,986.76
2018-03-26T10:10:23.068Z,986.70
2018-03-26T10:11:29.841Z,986.79
2018-03-26T10:12:36.610Z,986.75
2018-03-26T10:13:43.418Z,986.75
2018-03-26T10:14:50.171Z,986.73
2018-03-26T10:15:56.977Z,986.80
2018-03-26T10:17:03.662Z,986.73
2018-03-26T10:18:10.488Z,986.74
2018-03-26T10:19:17.312Z,986.70
2018-03-26T10:20:24.117Z,986.81
2018-03-26T10:21:30.928Z,986.76
2018-03-26T10:22:37.656Z,986.80
2018-03-26T10:23:44.394Z,986.85
2018-03-26T10:24:51.162Z,986.75
2018-03-26T10:25:58.005Z,986.80
2018-03-26T10:27:04.748Z,986.87
2018-03-26T10:28:11.525Z,986.80
2018-03-26T10:29:18.298Z,986.88
2018-03-26T10:30:25.072Z,986.85
2018-03-26T10:31:31.908Z,986.83
2018-03-26T10:32:38.633Z,986.84
2018-03-26T10:33:45.508Z,986.81
2018-03-26T10:34:52.306Z,986.79
2018-03-26T10:35:59.062Z,986.85
2018-03-26T10:37:05.920Z,986.80
2018-03-26T10:38:12.668Z,986.80
2018-03-26T10:39:19.408Z,986.81
2018-03-26T10:40:26.193Z,986.77
2018-03-26T10:41:32.983Z,986.80
2018-03-26T10:42:39.737Z,986.77
2018-03-26T10:43:46.492Z,986.70
2018-03-26T10:44:53.230Z,986.78
2018-03-26T10:46:00.060Z,986.68
2018-03-26T10:47:06.849Z,986.70
2018-03-26T10:48:13.625Z,986.72
2018-03-26T10:49:20.448Z,986.68
2018-03-26T10:50:27.176Z,986.65
2018-03-26T10:51:33.956Z,986.67
2018-03-26T10:52:40.716Z,986.64
2018-03-26T10:53:47.499Z,986.73
2018-03-26T10:54:54.243Z,986.73
2018-03-26T10:56:01.047Z,986.67
2018-03-26T10:57:07.784Z,986.67
2018-03-26T10:58:14.555Z,986.67
2018-03-26T10:59:21.392Z,986.66
2018-03-26T11:00:28.360Z,986.64
2018-03-26T11:01:35.157Z,986.69
2018-03-26T11:02:41.909Z,986.64
2018-03-26T11:03:48.720Z,986.66
2018-03-26T11:04:55.436Z,986.68
2018-03-26T11:06:02.240Z,986.68
2018-03-26T11:07:09.002Z,986.61
2018-03-26T11:08:15.767Z,986.68
2018-03-26T11:09:22.539Z,986.72
2018-03-26T11:10:29.312Z,986.68
2018-03-26T11:11:36.235Z,986.69
2018-03-26T11:12:42.981Z,986.69
2018-03-26T11:13:49.699Z,986.72
2018-03-26T11:14:56.436Z,986.63
2018-03-26T11:16:03.227Z,986.66
2018-03-26T11:17:10.009Z,986.60
2018-03-26T11:18:16.787Z,986.63
2018-03-26T11:19:23.522Z,986.62
2018-03-26T11:20:30.314Z,986.59
2018-03-26T11:21:37.105Z,986.62
2018-03-26T11:22:43.896Z,986.62
2018-03-26T11:23:50.687Z,986.65
2018-03-26T11:24:57.466Z,986.65
2018-03-26T11:26:04.322Z,986.63
2018-03-26T11:27:11.135Z,986.70
2018-03-26T11:28:17.867Z,986.69
2018-03-26T11:29:24.585Z,986.65
2018-03-26T11:30:31.332Z,986.66
2018-03-26T11:31:38.055Z,986.63
2018-03-26T11:32:44.859Z,986.64
2018-03-26T11:33:51.617Z,986.64
2018-03-26T11:34:58.363Z,986.65
2018-03-26T11:36:05.113Z,986.64
2018-03-26T11:37:11.936Z,986.67
2018-03-26T11:38:18.673Z,986.63
2018-03-26T11:39:25.533Z,986.69
2018-03-26T11:40:32.173Z,986.56
2018-03-26T11:41:39.007Z,986.65
2018-03-26T11:42:45.785Z,986.61
2018-03-26T11:43:52.521Z,986.63
2018-03-26T11:44:59.268Z,986.69
2018-03-26T11:46:06.210Z,986.62
2018-03-26T11:47:12.959Z,986.60
2018-03-26T11:48:19.826Z,986.59
2018-03-26T11:49:26.548Z,986.56
2018-03-26T11:50:33.293Z,986.50
2018-03-26T11:51:40.059Z,986.60
2018-03-26T11:52:46.927Z,986.53
2018-03-26T11:53:53.651Z,986.62
2018-03-26T11:55:00.389Z,986.56
2018-03-26T11:56:07.209Z,986.60
2018-03-26T11:57:13.968Z,986.54
2018-03-26T11:58:20.720Z,986.58
2018-03-26T11:59:27.471Z,986.58
2018-03-26T12:00:34.215Z,986.63
2018-03-26T12:01:41.041Z,986.59
2018-03-26T12:02:47.797Z,986.52
2018-03-26T12:03:54.575Z,986.59
2018-03-26T12:05:01.296Z,986.59
2018-03-26T12:06:08.242Z,986.57
2018-03-26T12:07:15.012Z,986.59
2018-03-26T12:08:21.769Z,986.57
2018-03-26T12:09:28.509Z,986.61
2018-03-26T12:10:35.257Z,986.57
2018-03-26T12:11:41.985Z,986.55
2018-03-26T12:12:48.776Z,986.56
2018-03-26T12:13:55.593Z,986.58
2018-03-26T12:15:02.324Z,986.53
2018-03-26T12:16:09.311Z,986.48
2018-03-26T12:17:16.019Z,986.51
2018-03-26T12:18:22.844Z,986.50
2018-03-26T12:19:29.594Z,986.53
2018-03-26T12:20:36.436Z,986.48
2018-03-26T12:21:43.377Z,986.47
2018-03-26T12:22:50.166Z,986.62
2018-03-26T12:23:56.915Z,986.51
2018-03-26T12:25:03.988Z,986.51
2018-03-26T12:26:10.908Z,986.40
2018-03-26T12:27:17.796Z,986.47
2018-03-26T12:28:24.500Z,986.49
2018-03-26T12:29:31.520Z,986.52
2018-03-26T12:30:38.510Z,986.49
2018-03-26T12:31:45.289Z,986.47
2018-03-26T12:32:52.053Z,986.46
2018-03-26T12:33:58.784Z,986.51
2018-03-26T12:35:05.724Z,986.46
2018-03-26T12:36:12.882Z,986.53
2018-03-26T12:37:19.645Z,986.51
2018-03-26T12:38:26.403Z,986.49
2018-03-26T12:39:33.292Z,986.53
2018-03-26T12:40:40.313Z,986.52
2018-03-26T12:41:46.759Z,986.46
2018-03-26T12:42:53.491Z,986.49
2018-03-26T12:44:00.241Z,986.52
2018-03-26T12:45:06.987Z,986.58
2018-03-26T12:46:14.100Z,986.52
2018-03-26T12:47:21.003Z,986.63
2018-03-26T12:48:27.782Z,986.54
2018-03-26T12:49:34.560Z,986.56
2018-03-26T12:50:41.702Z,986.50
2018-03-26T12:51:48.585Z,986.52
2018-03-26T12:52:55.611Z,986.58
2018-03-26T12:54:03.006Z,986.48
2018-03-26T12:55:09.789Z,986.56
2018-03-26T12:56:16.500Z,986.57
2018-03-26T12:57:23.244Z,986.52
2018-03-26T12:58:30.638Z,986.52
2018-03-26T12:59:37.325Z,986.55
2018-03-26T13:00:44.091Z,986.49
2018-03-26T13:01:50.930Z,986.57
2018-03-26T13:02:57.848Z,986.53
2018-03-26T13:04:04.568Z,986.56
2018-03-26T13:05:11.347Z,986.57
2018-03-26T13:06:18.144Z,986.57
2018-03-26T13:07:25.002Z,986.52
2018-03-26T13:08:31.766Z,986.59
2018-03-26T13:09:38.597Z,986.61
2018-03-26T13:10:45.347Z,986.56
2018-03-26T13:11:52.103Z,986.48
2018-03-26T13:12:58.802Z,986.55
2018-03-26T13:14:05.839Z,986.49
2018-03-26T13:15:12.601Z,986.44
2018-03-26T13:16:19.442Z,986.45
2018-03-26T13:17:26.189Z,986.45
2018-03-26T13:18:32.925Z,986.41
2018-03-26T13:19:39.641Z,986.38
2018-03-26T13:20:46.481Z,986.51
2018-03-26T13:21:53.245Z,986.41
2018-03-26T13:22:59.968Z,986.39
2018-03-26T13:24:06.726Z,986.38
2018-03-26T13:25:13.475Z,986.41
2018-03-26T13:26:20.337Z,986.49
2018-03-26T13:27:27.088Z,986.53
2018-03-26T13:28:33.927Z,986.47
2018-03-26T13:29:40.686Z,986.54
2018-03-26T13:30:47.421Z,986.52
2018-03-26T13:31:54.216Z,986.48
2018-03-26T13:33:00.948Z,986.54
2018-03-26T13:34:07.705Z,986.60
2018-03-26T13:35:14.432Z,986.49
2018-03-26T13:36:21.197Z,986.53
2018-03-26T13:37:27.941Z,986.60
2018-03-26T13:38:34.671Z,986.54
2018-03-26T13:39:41.409Z,986.57
2018-03-26T13:40:48.180Z,986.58
2018-03-26T13:41:54.951Z,986.52
2018-03-26T13:43:01.748Z,986.51
2018-03-26T13:44:08.560Z,986.54
2018-03-26T13:45:15.351Z,986.62
2018-03-26T13:46:22.095Z,986.64
2018-03-26T13:47:28.939Z,986.49
2018-03-26T13:48:35.661Z,986.55
2018-03-26T13:49:42.401Z,986.50
2018-03-26T13:50:49.204Z,986.60
2018-03-26T13:51:55.928Z,986.51
2018-03-26T13:53:02.725Z,986.53